PWSweather.com
Personal Weather Stations
Station Observations
WUFYI1828
Erie, CO

Erie, CO

Lat: 40.03382874, Lon: -105.04464722

Elevation: 5212

Station Type:

Latest ConditionsUpdated 5:54:00 AM MST Friday, Jan 18, 2019
Currently Today's Max Today's Min Today's Average
Temperature 28.0°F-2.2°C 48.0°F8.9°C 28.0°F-2.2°C 35.1°F1.7°C
Dew Point 24.1°F-4.4°C 28.4°F-2.0°C 23.0°F-5.0°C 25.0°F-3.9°C
Winds Calm Calm 10.7 mph -17.2 kmh - - 0.7 mph 1.1 kmh
Wind Gusts -- 14.8 mph23.8 kmh - -
Humidity 85% 85% 42% 68%
Pressure 29.64 in1003.7 mb 29.66 in1004.4 mb 29.60 in1002.4 mb -
Hour Temp Dew Point Humidity Winds Wind Gusts Pressure Precip Precip Rate Daily Precip Total
05:54 AM 28.0°F-2.2°C 24.1°F-4.4°C 85% Calm Calm -- 29.64 in1003.7 mb 0.00 in0.0 mm 0.00 in0.0 mm 0.00 in0.0 mm
05:49 AM 28.9°F-1.7°C 24.1°F-4.4°C 82% 0.2 mph S0.3 kmh S 1.1 mph1.8 kmh 29.64 in1003.7 mb 0.00 in0.0 mm 0.00 in0.0 mm 0.00 in0.0 mm
05:44 AM 29.1°F-1.6°C 24.1°F-4.4°C 81% Calm Calm -- 29.63 in1003.4 mb 0.00 in0.0 mm 0.00 in0.0 mm 0.00 in0.0 mm
05:39 AM 29.3°F-1.5°C 24.3°F-4.3°C 81% Calm Calm -- 29.63 in1003.4 mb 0.00 in0.0 mm 0.00 in0.0 mm 0.00 in0.0 mm
05:34 AM 29.5°F-1.4°C 24.1°F-4.4°C 80% Calm Calm -- 29.63 in1003.4 mb 0.00 in0.0 mm 0.00 in0.0 mm 0.00 in0.0 mm
05:29 AM 29.8°F-1.2°C 24.4°F-4.2°C 80% Calm Calm -- 29.61 in1002.7 mb 0.00 in0.0 mm 0.00 in0.0 mm 0.00 in0.0 mm
05:24 AM 29.7°F-1.3°C 24.3°F-4.3°C 80% Calm Calm -- 29.61 in1002.7 mb 0.00 in0.0 mm 0.00 in0.0 mm 0.00 in0.0 mm
05:19 AM 29.1°F-1.6°C 24.1°F-4.4°C 81% Calm Calm -- 29.60 in1002.4 mb 0.00 in0.0 mm 0.00 in0.0 mm 0.00 in0.0 mm
05:14 AM 30.0°F-1.1°C 24.3°F-4.3°C 79% Calm Calm -- 29.61 in1002.7 mb 0.00 in0.0 mm 0.00 in0.0 mm 0.00 in0.0 mm
05:09 AM 30.4°F-0.9°C 24.3°F-4.3°C 78% Calm Calm -- 29.61 in1002.7 mb 0.00 in0.0 mm 0.00 in0.0 mm 0.00 in0.0 mm
05:04 AM 30.4°F-0.9°C 24.6°F-4.1°C 79% Calm Calm -- 29.60 in1002.4 mb 0.00 in0.0 mm 0.00 in0.0 mm 0.00 in0.0 mm
04:59 AM 29.5°F-1.4°C 24.4°F-4.2°C 81% 0.2 mph SE0.3 kmh SE 1.1 mph1.8 kmh 29.61 in1002.7 mb 0.00 in0.0 mm 0.00 in0.0 mm 0.00 in0.0 mm
04:54 AM 29.3°F-1.5°C 24.3°F-4.3°C 81% 0.4 mph SE0.6 kmh SE 1.1 mph1.8 kmh 29.60 in1002.4 mb 0.00 in0.0 mm 0.00 in0.0 mm 0.00 in0.0 mm
04:49 AM 29.3°F-1.5°C 24.3°F-4.3°C 81% Calm Calm -- 29.60 in1002.4 mb 0.00 in0.0 mm 0.00 in0.0 mm 0.00 in0.0 mm
04:44 AM 30.4°F-0.9°C 24.6°F-4.1°C 79% 0.4 mph SE0.6 kmh SE 1.1 mph1.8 kmh 29.61 in1002.7 mb 0.00 in0.0 mm 0.00 in0.0 mm 0.00 in0.0 mm
04:39 AM 30.0°F-1.1°C 24.3°F-4.3°C 79% Calm Calm -- 29.61 in1002.7 mb 0.00 in0.0 mm 0.00 in0.0 mm 0.00 in0.0 mm
04:34 AM 30.4°F-0.9°C 24.3°F-4.3°C 78% Calm Calm -- 29.62 in1003.0 mb 0.00 in0.0 mm 0.00 in0.0 mm 0.00 in0.0 mm
04:29 AM 31.3°F-0.4°C 24.6°F-4.1°C 76% Calm Calm -- 29.62 in1003.0 mb 0.00 in0.0 mm 0.00 in0.0 mm 0.00 in0.0 mm
04:24 AM 31.1°F-0.5°C 24.6°F-4.1°C 77% Calm Calm -- 29.62 in1003.0 mb 0.00 in0.0 mm 0.00 in0.0 mm 0.00 in0.0 mm
04:19 AM 31.3°F-0.4°C 24.8°F-4.0°C 77% 0.2 mph NE0.3 kmh NE 1.1 mph1.8 kmh 29.62 in1003.0 mb 0.00 in0.0 mm 0.00 in0.0 mm 0.00 in0.0 mm
04:14 AM 31.1°F-0.5°C 25.0°F-3.9°C 78% Calm Calm -- 29.61 in1002.7 mb 0.00 in0.0 mm 0.00 in0.0 mm 0.00 in0.0 mm
04:09 AM 31.5°F-0.3°C 25.0°F-3.9°C 77% 0.7 mph SE1.1 kmh SE 1.1 mph1.8 kmh 29.62 in1003.0 mb 0.00 in0.0 mm 0.00 in0.0 mm 0.00 in0.0 mm
04:04 AM 31.6°F-0.2°C 25.0°F-3.9°C 76% Calm Calm -- 29.62 in1003.0 mb 0.00 in0.0 mm 0.00 in0.0 mm 0.00 in0.0 mm
03:59 AM 32.2°F0.1°C 25.2°F-3.8°C 75% Calm Calm -- 29.62 in1003.0 mb 0.00 in0.0 mm 0.00 in0.0 mm 0.00 in0.0 mm
03:54 AM 33.8°F1.0°C 25.3°F-3.7°C 71% 0.7 mph SE1.1 kmh SE 1.1 mph1.8 kmh 29.62 in1003.0 mb 0.00 in0.0 mm 0.00 in0.0 mm 0.00 in0.0 mm
03:49 AM 33.3°F0.7°C 25.2°F-3.8°C 72% 1.6 mph S2.6 kmh S 2.2 mph3.5 kmh 29.63 in1003.4 mb 0.00 in0.0 mm 0.00 in0.0 mm 0.00 in0.0 mm
03:44 AM 32.0°F0.0°C 25.0°F-3.9°C 75% 0.9 mph S1.4 kmh S 1.1 mph1.8 kmh 29.63 in1003.4 mb 0.00 in0.0 mm 0.00 in0.0 mm 0.00 in0.0 mm
03:39 AM 32.0°F0.0°C 25.0°F-3.9°C 75% Calm Calm -- 29.63 in1003.4 mb 0.00 in0.0 mm 0.00 in0.0 mm 0.00 in0.0 mm
03:34 AM 32.4°F0.2°C 24.3°F-4.3°C 72% Calm Calm -- 29.63 in1003.4 mb 0.00 in0.0 mm 0.00 in0.0 mm 0.00 in0.0 mm
03:29 AM 32.4°F0.2°C 24.6°F-4.1°C 73% Calm Calm -- 29.62 in1003.0 mb 0.00 in0.0 mm 0.00 in0.0 mm 0.00 in0.0 mm
03:24 AM 32.0°F0.0°C 24.6°F-4.1°C 74% Calm Calm -- 29.62 in1003.0 mb 0.00 in0.0 mm 0.00 in0.0 mm 0.00 in0.0 mm
03:19 AM 32.9°F0.5°C 24.4°F-4.2°C 71% Calm Calm -- 29.62 in1003.0 mb 0.00 in0.0 mm 0.00 in0.0 mm 0.00 in0.0 mm
03:14 AM 33.8°F1.0°C 25.0°F-3.9°C 70% Calm Calm -- 29.62 in1003.0 mb 0.00 in0.0 mm 0.00 in0.0 mm 0.00 in0.0 mm
03:09 AM 33.6°F0.9°C 24.8°F-4.0°C 70% 0.7 mph SSW1.1 kmh SSW 1.1 mph1.8 kmh 29.62 in1003.0 mb 0.00 in0.0 mm 0.00 in0.0 mm 0.00 in0.0 mm
03:04 AM 33.3°F0.7°C 24.8°F-4.0°C 71% 0.4 mph S0.6 kmh S 1.1 mph1.8 kmh 29.63 in1003.4 mb 0.00 in0.0 mm 0.00 in0.0 mm 0.00 in0.0 mm
02:59 AM 33.6°F0.9°C 24.8°F-4.0°C 70% Calm Calm -- 29.63 in1003.4 mb 0.00 in0.0 mm 0.00 in0.0 mm 0.00 in0.0 mm
02:54 AM 34.2°F1.2°C 25.0°F-3.9°C 69% Calm Calm -- 29.63 in1003.4 mb 0.00 in0.0 mm 0.00 in0.0 mm 0.00 in0.0 mm
02:49 AM 34.2°F1.2°C 25.0°F-3.9°C 69% 0.2 mph S0.3 kmh S 1.1 mph1.8 kmh 29.63 in1003.4 mb 0.00 in0.0 mm 0.00 in0.0 mm 0.00 in0.0 mm
02:44 AM 34.0°F1.1°C 24.8°F-4.0°C 69% Calm Calm -- 29.63 in1003.4 mb 0.00 in0.0 mm 0.00 in0.0 mm 0.00 in0.0 mm
02:39 AM 34.2°F1.2°C 25.0°F-3.9°C 69% 0.2 mph SE0.3 kmh SE 1.1 mph1.8 kmh 29.64 in1003.7 mb 0.00 in0.0 mm 0.00 in0.0 mm 0.00 in0.0 mm
02:34 AM 34.2°F1.2°C 24.6°F-4.1°C 68% 1.1 mph SE1.8 kmh SE 1.1 mph1.8 kmh 29.64 in1003.7 mb 0.00 in0.0 mm 0.00 in0.0 mm 0.00 in0.0 mm
02:29 AM 34.5°F1.4°C 26.1°F-3.3°C 71% 0.2 mph ENE0.3 kmh ENE 1.1 mph1.8 kmh 29.63 in1003.4 mb 0.00 in0.0 mm 0.00 in0.0 mm 0.00 in0.0 mm
02:24 AM 34.5°F1.4°C 25.0°F-3.9°C 68% 0.7 mph E1.1 kmh E 1.1 mph1.8 kmh 29.63 in1003.4 mb 0.00 in0.0 mm 0.00 in0.0 mm 0.00 in0.0 mm
02:19 AM 34.7°F1.5°C 24.8°F-4.0°C 67% Calm Calm -- 29.64 in1003.7 mb 0.00 in0.0 mm 0.00 in0.0 mm 0.00 in0.0 mm
02:14 AM 33.6°F0.9°C 24.4°F-4.2°C 69% 4.5 mph SW7.2 kmh SW 5.8 mph9.3 kmh 29.65 in1004.1 mb 0.00 in0.0 mm 0.00 in0.0 mm 0.00 in0.0 mm
02:09 AM 34.5°F1.4°C 25.0°F-3.9°C 68% 0.7 mph E1.1 kmh E 1.1 mph1.8 kmh 29.65 in1004.1 mb 0.00 in0.0 mm 0.00 in0.0 mm 0.00 in0.0 mm
02:04 AM 35.1°F1.7°C 25.5°F-3.6°C 68% 0.4 mph SW0.6 kmh SW 1.1 mph1.8 kmh 29.65 in1004.1 mb 0.00 in0.0 mm 0.00 in0.0 mm 0.00 in0.0 mm
01:59 AM 36.7°F2.6°C 26.1°F-3.3°C 65% 0.7 mph WSW1.1 kmh WSW 1.1 mph1.8 kmh 29.64 in1003.7 mb 0.00 in0.0 mm 0.00 in0.0 mm 0.00 in0.0 mm
01:54 AM 38.1°F3.4°C 25.9°F-3.4°C 61% Calm Calm -- 29.64 in1003.7 mb 0.00 in0.0 mm 0.00 in0.0 mm 0.00 in0.0 mm
01:49 AM 38.8°F3.8°C 25.7°F-3.5°C 59% Calm Calm -- 29.64 in1003.7 mb 0.00 in0.0 mm 0.00 in0.0 mm 0.00 in0.0 mm
01:44 AM 40.1°F4.5°C 26.1°F-3.3°C 57% 1.8 mph SSW2.9 kmh SSW 2.2 mph3.5 kmh 29.65 in1004.1 mb 0.00 in0.0 mm 0.00 in0.0 mm 0.00 in0.0 mm
01:39 AM 40.5°F4.7°C 26.4°F-3.1°C 57% 0.2 mph S0.3 kmh S 1.1 mph1.8 kmh 29.64 in1003.7 mb 0.00 in0.0 mm 0.00 in0.0 mm 0.00 in0.0 mm
01:34 AM 43.2°F6.2°C 27.1°F-2.7°C 53% 0.2 mph ESE0.3 kmh ESE 1.1 mph1.8 kmh 29.64 in1003.7 mb 0.00 in0.0 mm 0.00 in0.0 mm 0.00 in0.0 mm
01:29 AM 46.9°F8.3°C 28.2°F-2.1°C 48% 4.0 mph SW6.4 kmh SW 5.8 mph9.3 kmh 29.63 in1003.4 mb 0.00 in0.0 mm 0.00 in0.0 mm 0.00 in0.0 mm
01:24 AM 47.7°F8.7°C 28.4°F-2.0°C 47% Calm Calm -- 29.63 in1003.4 mb 0.00 in0.0 mm 0.00 in0.0 mm 0.00 in0.0 mm
01:19 AM 47.7°F8.7°C 27.9°F-2.3°C 46% 4.0 mph SW6.4 kmh SW 5.8 mph9.3 kmh 29.64 in1003.7 mb 0.00 in0.0 mm 0.00 in0.0 mm 0.00 in0.0 mm
01:14 AM 47.7°F8.7°C 27.3°F-2.6°C 45% 4.0 mph SSW6.4 kmh SSW 5.8 mph9.3 kmh 29.65 in1004.1 mb 0.00 in0.0 mm 0.00 in0.0 mm 0.00 in0.0 mm
01:09 AM 41.7°F5.4°C 23.0°F-5.0°C 47% 10.7 mph WSW17.2 kmh WSW 14.8 mph23.8 kmh 29.65 in1004.1 mb 0.00 in0.0 mm 0.00 in0.0 mm 0.00 in0.0 mm
01:04 AM 41.7°F5.4°C 25.9°F-3.4°C 53% 1.3 mph S2.1 kmh S 2.2 mph3.5 kmh 29.65 in1004.1 mb 0.00 in0.0 mm 0.00 in0.0 mm 0.00 in0.0 mm
12:59 AM 42.1°F5.6°C 24.8°F-4.0°C 50% 0.9 mph ESE1.4 kmh ESE 1.1 mph1.8 kmh 29.65 in1004.1 mb 0.00 in0.0 mm 0.00 in0.0 mm 0.00 in0.0 mm
12:54 AM 39.2°F4.0°C 23.9°F-4.5°C 54% Calm Calm -- 29.64 in1003.7 mb 0.00 in0.0 mm 0.00 in0.0 mm 0.00 in0.0 mm
12:49 AM 40.1°F4.5°C 25.2°F-3.8°C 55% 1.1 mph ENE1.8 kmh ENE 2.2 mph3.5 kmh 29.64 in1003.7 mb 0.00 in0.0 mm 0.00 in0.0 mm 0.00 in0.0 mm
12:44 AM 41.7°F5.4°C 25.3°F-3.7°C 52% 1.1 mph SE1.8 kmh SE 1.1 mph1.8 kmh 29.65 in1004.1 mb 0.00 in0.0 mm 0.00 in0.0 mm 0.00 in0.0 mm
12:39 AM 45.5°F7.5°C 25.9°F-3.4°C 46% Calm Calm -- 29.65 in1004.1 mb 0.00 in0.0 mm 0.00 in0.0 mm 0.00 in0.0 mm
12:34 AM 48.0°F8.9°C 26.1°F-3.3°C 42% 2.5 mph SW4.0 kmh SW 3.4 mph5.5 kmh 29.65 in1004.1 mb 0.00 in0.0 mm 0.00 in0.0 mm 0.00 in0.0 mm
12:29 AM 45.3°F7.4°C 24.6°F-4.1°C 44% 4.0 mph SW6.4 kmh SW 4.5 mph7.2 kmh 29.64 in1003.7 mb 0.00 in0.0 mm 0.00 in0.0 mm 0.00 in0.0 mm
12:24 AM 40.5°F4.7°C 23.7°F-4.6°C 51% 1.3 mph SSW2.1 kmh SSW 2.2 mph3.5 kmh 29.65 in1004.1 mb 0.00 in0.0 mm 0.00 in0.0 mm 0.00 in0.0 mm
12:19 AM 36.9°F2.7°C 24.6°F-4.1°C 61% 0.2 mph SSW0.3 kmh SSW 1.1 mph1.8 kmh 29.64 in1003.7 mb 0.00 in0.0 mm 0.00 in0.0 mm 0.00 in0.0 mm
12:14 AM 35.2°F1.8°C 23.5°F-4.7°C 62% Calm Calm -- 29.64 in1003.7 mb 0.00 in0.0 mm 0.00 in0.0 mm 0.00 in0.0 mm
12:09 AM 34.9°F1.6°C 24.6°F-4.1°C 66% Calm Calm -- 29.65 in1004.1 mb 0.00 in0.0 mm 0.00 in0.0 mm 0.00 in0.0 mm
12:04 AM 35.8°F2.1°C 24.8°F-4.0°C 64% Calm Calm -- 29.66 in1004.4 mb 0.00 in0.0 mm 0.00 in0.0 mm 0.00 in0.0 mm